Time;durP1;ratioP1;P1;durP2;ratioP2;P2;SDS_P1;SDS_P2;PMS_P1;PMS_P2;Temp;Humidity;BMP_temperature;BMP_pressure;BME280_temperature;BME280_humidity;BME280_pressure;Samples;Min_cycle;Max_cycle;Signal;HPM_P1;HPM_P2
2021/08/21 00:03:03;;;;;;;3.92;2.63;;;;;;;19.43;65.85;100397.28;10330139;28;20058;-58
2021/08/21 00:08:05;;;;;;;4.65;2.78;;;;;;;19.40;65.95;100397.66;10338652;28;20112;-60
2021/08/21 00:13:07;;;;;;;3.15;2.90;;;;;;;19.38;66.21;100400.53;10326599;28;20085;-58
2021/08/21 00:18:08;;;;;;;4.60;2.97;;;;;;;19.34;66.65;100401.88;10340387;28;20480;-59
2021/08/21 00:23:10;;;;;;;3.05;2.75;;;;;;;19.29;67.10;100401.59;10344152;28;20533;-58
2021/08/21 00:28:11;;;;;;;3.80;3.45;;;;;;;19.26;67.18;100396.56;10341108;28;21804;-58
2021/08/21 00:33:13;;;;;;;4.15;3.33;;;;;;;19.21;67.41;100404.31;10337774;28;20100;-58
2021/08/21 00:38:14;;;;;;;3.65;3.15;;;;;;;19.16;67.39;100406.72;10345361;28;20092;-58
2021/08/21 00:43:16;;;;;;;4.05;3.55;;;;;;;19.10;67.97;100399.31;10339253;28;20066;-58
2021/08/21 00:48:18;;;;;;;3.53;3.10;;;;;;;19.07;68.10;100401.34;10339985;28;20446;-58
2021/08/21 00:53:20;;;;;;;3.85;3.33;;;;;;;19.01;68.11;100399.34;10339804;28;20188;-59
2021/08/21 00:58:22;;;;;;;4.57;3.00;;;;;;;18.95;68.41;100394.66;10336230;28;20081;-59
2021/08/21 01:03:24;;;;;;;3.42;2.75;;;;;;;18.96;68.42;100403.56;10339645;28;20108;-59
2021/08/21 01:08:26;;;;;;;3.60;3.30;;;;;;;18.93;68.25;100387.75;10340908;28;20280;-59
2021/08/21 01:13:27;;;;;;;4.28;3.88;;;;;;;18.94;68.24;100398.34;10334906;28;20127;-60
2021/08/21 01:18:29;;;;;;;3.25;2.92;;;;;;;18.95;68.34;100397.34;10334242;28;20057;-60
2021/08/21 01:23:30;;;;;;;4.95;3.20;;;;;;;18.97;68.42;100392.63;10334894;28;20774;-60
2021/08/21 01:28:32;;;;;;;3.95;3.30;;;;;;;18.94;68.30;100384.88;10333103;28;20046;-58
2021/08/21 01:33:35;;;;;;;4.55;3.38;;;;;;;18.93;68.20;100394.00;10331615;28;20545;-60
2021/08/21 01:38:53;;;;;;;3.63;3.20;;;;;;;18.89;68.29;100395.34;10340703;28;20096;-59
2021/08/21 01:43:54;;;;;;;3.65;3.35;;;;;;;18.84;68.64;100386.91;10334720;28;20569;-59
2021/08/21 01:48:55;;;;;;;4.10;3.25;;;;;;;18.80;68.67;100390.97;10334554;28;20100;-61
2021/08/21 01:53:57;;;;;;;3.38;3.13;;;;;;;18.73;68.41;100388.13;10336313;28;20161;-59
2021/08/21 01:58:59;;;;;;;4.68;3.72;;;;;;;18.71;68.86;100395.56;10333784;28;20082;-60
2021/08/21 02:04:00;;;;;;;3.45;3.15;;;;;;;18.66;69.15;100388.00;10339820;28;20092;-58
2021/08/21 02:09:02;;;;;;;5.13;3.90;;;;;;;18.62;69.30;100392.03;10336921;28;20054;-62
2021/08/21 02:14:03;;;;;;;4.65;4.25;;;;;;;18.59;69.53;100392.38;10333240;28;20057;-57
2021/08/21 02:19:05;;;;;;;3.50;3.20;;;;;;;18.56;69.72;100406.22;10332694;28;20684;-58
2021/08/21 02:24:07;;;;;;;4.00;3.20;;;;;;;18.53;69.42;100395.78;10334922;28;20462;-58
2021/08/21 02:29:10;;;;;;;4.32;3.85;;;;;;;18.54;69.83;100392.06;10329018;28;20053;-58
2021/08/21 02:34:11;;;;;;;3.67;3.38;;;;;;;18.57;70.03;100398.94;10335903;28;20069;-60
2021/08/21 02:39:14;;;;;;;3.95;3.53;;;;;;;18.54;70.33;100392.06;10335424;28;20104;-61
2021/08/21 02:44:16;;;;;;;3.42;3.13;;;;;;;18.49;70.51;100389.88;10335000;28;20070;-57
2021/08/21 02:49:18;;;;;;;4.32;3.75;;;;;;;18.44;70.74;100386.03;10333773;28;20124;-60
2021/08/21 02:54:19;;;;;;;5.95;3.75;;;;;;;18.31;71.02;100375.75;10340122;28;20137;-60
2021/08/21 02:59:20;;;;;;;6.43;3.58;;;;;;;18.32;71.32;100372.91;10331859;28;20490;-59
2021/08/21 03:04:22;;;;;;;3.95;3.47;;;;;;;18.30;71.36;100371.38;10333989;28;20080;-61
2021/08/21 03:09:23;;;;;;;4.05;3.75;;;;;;;18.23;71.70;100373.09;10334522;28;20073;-58
2021/08/21 03:14:24;;;;;;;5.10;3.50;;;;;;;18.19;71.64;100372.56;10330658;28;20135;-59
2021/08/21 03:19:26;;;;;;;4.35;4.05;;;;;;;18.10;71.75;100362.84;10332795;28;20077;-57
2021/08/21 03:24:27;;;;;;;3.55;3.25;;;;;;;18.05;71.78;100359.81;10331364;28;20077;-58
2021/08/21 03:29:29;;;;;;;5.80;4.63;;;;;;;18.02;71.92;100367.22;10334320;28;20136;-59
2021/08/21 03:34:31;;;;;;;3.70;3.35;;;;;;;17.99;72.12;100372.94;10337124;28;20050;-57
2021/08/21 03:39:33;;;;;;;3.92;3.60;;;;;;;17.93;72.45;100373.63;10337790;28;20066;-60
2021/08/21 03:44:34;;;;;;;6.10;3.63;;;;;;;17.90;72.39;100373.13;10331667;28;20104;-58
2021/08/21 03:49:36;;;;;;;4.30;4.00;;;;;;;17.84;72.37;100379.97;10335603;28;20050;-58
2021/08/21 03:54:37;;;;;;;3.97;3.55;;;;;;;17.81;72.37;100383.84;10329231;28;20065;-58
2021/08/21 03:59:39;;;;;;;3.50;3.20;;;;;;;17.80;72.31;100389.41;10336437;28;20072;-59
2021/08/21 04:04:40;;;;;;;3.55;2.63;;;;;;;17.82;72.22;100382.00;10328932;28;20132;-58
2021/08/21 04:09:42;;;;;;;3.63;3.25;;;;;;;17.81;72.00;100385.72;10331842;28;20050;-60
2021/08/21 04:14:44;;;;;;;3.70;2.67;;;;;;;17.78;71.90;100383.34;10323932;28;20096;-61
2021/08/21 04:19:45;;;;;;;4.07;2.50;;;;;;;17.80;71.94;100381.31;10327250;28;20129;-58
2021/08/21 04:24:46;;;;;;;4.03;3.15;;;;;;;17.74;71.78;100379.31;10328744;28;20100;-58
2021/08/21 04:29:48;;;;;;;3.03;2.58;;;;;;;17.67;72.38;100369.19;10334095;28;20042;-58
2021/08/21 04:34:50;;;;;;;3.03;2.70;;;;;;;17.75;72.31;100381.81;10328884;28;20292;-57
2021/08/21 04:39:51;;;;;;;4.00;3.03;;;;;;;17.76;72.53;100383.50;10343291;28;20050;-57
2021/08/21 04:44:58;;;;;;;4.72;3.03;;;;;;;17.79;72.65;100382.31;10329422;28;20053;-60
2021/08/21 04:50:00;;;;;;;3.70;3.03;;;;;;;17.80;72.81;100386.69;10328569;28;20049;-60
2021/08/21 04:55:02;;;;;;;3.53;3.22;;;;;;;17.82;72.61;100388.22;10328381;28;20503;-59
2021/08/21 05:00:05;;;;;;;4.18;3.28;;;;;;;17.82;72.50;100390.91;10327951;28;20070;-62
2021/08/21 05:05:07;;;;;;;4.23;3.13;;;;;;;17.87;72.39;100405.75;10324424;28;20069;-58
2021/08/21 05:10:09;;;;;;;3.45;2.58;;;;;;;17.93;72.35;100405.09;10328096;28;20108;-59
2021/08/21 05:15:12;;;;;;;3.45;3.15;;;;;;;17.96;72.26;100410.97;10313506;28;20046;-59
2021/08/21 05:20:26;;;;;;;5.00;3.13;;;;;;;17.98;72.35;100397.34;10316920;28;20064;-58
2021/08/21 05:25:28;;;;;;;3.25;2.95;;;;;;;18.09;72.09;100396.16;10314756;28;20499;-58
2021/08/21 05:30:30;;;;;;;4.07;3.47;;;;;;;18.13;72.12;100400.19;10314442;28;20050;-58
2021/08/21 05:35:32;;;;;;;4.50;3.10;;;;;;;18.14;72.32;100401.91;10312973;28;20192;-59
2021/08/21 05:40:34;;;;;;;4.65;3.13;;;;;;;18.26;72.27;100403.22;10315441;28;20140;-57
2021/08/21 05:45:36;;;;;;;3.63;3.10;;;;;;;18.40;72.25;100406.25;10315961;28;20054;-59
2021/08/21 05:50:37;;;;;;;3.75;3.10;;;;;;;18.46;71.83;100402.84;10322056;28;20745;-58
2021/08/21 05:55:38;;;;;;;4.32;3.97;;;;;;;18.45;72.50;100415.50;10316466;28;20077;-57
2021/08/21 06:00:40;;;;;;;3.95;3.60;;;;;;;18.63;72.20;100415.28;10312699;28;20045;-58
2021/08/21 06:05:42;;;;;;;5.00;4.20;;;;;;;18.72;71.73;100410.72;10313543;28;20109;-58
2021/08/21 06:10:44;;;;;;;4.05;3.22;;;;;;;18.80;71.64;100415.25;10306440;28;20162;-58
2021/08/21 06:15:45;;;;;;;4.30;3.60;;;;;;;18.93;71.49;100418.28;10307823;28;20064;-58
2021/08/21 06:20:46;;;;;;;3.22;2.92;;;;;;;19.11;70.60;100425.25;10311200;28;20058;-61
2021/08/21 06:25:48;;;;;;;3.40;3.10;;;;;;;19.19;70.44;100412.59;10313582;28;20565;-60
2021/08/21 06:30:49;;;;;;;3.30;3.00;;;;;;;19.30;70.07;100416.75;10313108;28;20152;-59
2021/08/21 06:35:51;;;;;;;4.75;4.35;;;;;;;19.48;69.41;100419.19;10314331;28;20131;-59
2021/08/21 06:40:52;;;;;;;4.22;3.85;;;;;;;19.65;68.62;100417.22;10311888;28;20431;-61
2021/08/21 06:45:54;;;;;;;3.70;3.33;;;;;;;19.78;68.11;100412.06;10307832;28;20244;-59
2021/08/21 06:50:55;;;;;;;3.67;2.88;;;;;;;19.87;67.40;100417.44;10313051;28;20128;-59
2021/08/21 06:56:01;;;;;;;3.50;3.17;;;;;;;19.94;67.78;100399.50;10315427;28;20132;-59
2021/08/21 07:01:02;;;;;;;3.97;3.45;;;;;;;20.17;66.88;100404.84;10317659;28;20089;-59
2021/08/21 07:06:04;;;;;;;5.40;2.50;;;;;;;20.38;66.51;100406.84;10312992;28;20053;-61
2021/08/21 07:11:06;;;;;;;5.30;3.78;;;;;;;20.57;64.38;100399.25;10305990;28;20131;-59
2021/08/21 07:16:07;;;;;;;3.25;2.95;;;;;;;20.39;65.01;100395.03;10313181;28;20622;-60
2021/08/21 07:21:10;;;;;;;4.55;3.38;;;;;;;20.70;64.22;100406.72;10311648;28;20054;-59
2021/08/21 07:26:11;;;;;;;3.80;3.38;;;;;;;20.99;63.32;100403.19;10309986;28;20499;-59
2021/08/21 07:31:12;;;;;;;3.13;2.75;;;;;;;21.20;62.72;100399.69;10309952;28;20484;-60
2021/08/21 07:36:14;;;;;;;3.15;2.88;;;;;;;21.32;62.00;100392.75;10313755;28;20064;-60
2021/08/21 07:41:15;;;;;;;4.55;2.58;;;;;;;21.44;62.18;100403.94;10311246;28;20129;-60
2021/08/21 07:46:17;;;;;;;2.92;2.38;;;;;;;21.62;61.85;100400.81;10315407;28;20153;-59
2021/08/21 07:51:18;;;;;;;3.95;2.90;;;;;;;21.72;60.84;100400.50;10312932;28;20048;-58
2021/08/21 07:56:20;;;;;;;3.33;2.70;;;;;;;21.81;60.99;100407.47;10309836;28;20135;-59
2021/08/21 08:01:21;;;;;;;3.75;2.80;;;;;;;21.98;59.72;100415.31;10313436;28;20077;-61
2021/08/21 08:06:23;;;;;;;3.47;3.17;;;;;;;21.97;59.72;100411.78;10312161;28;20052;-58
2021/08/21 08:11:24;;;;;;;5.72;2.60;;;;;;;21.99;59.13;100425.13;10310592;28;20137;-60
2021/08/21 08:16:26;;;;;;;3.25;2.65;;;;;;;22.09;60.08;100422.13;10310275;28;20542;-59
2021/08/21 08:21:27;;;;;;;3.97;2.67;;;;;;;22.47;58.26;100419.94;10310712;28;20137;-60
2021/08/21 08:26:28;;;;;;;3.90;3.47;;;;;;;22.74;57.85;100425.53;10311055;28;20151;-62
2021/08/21 08:31:30;;;;;;;2.70;2.50;;;;;;;23.14;57.12;100414.91;10309197;28;20100;-61
2021/08/21 08:36:31;;;;;;;3.03;2.83;;;;;;;23.27;54.23;100406.00;10309069;28;20101;-61
2021/08/21 08:41:33;;;;;;;3.60;3.30;;;;;;;23.31;54.38;100396.38;10311954;28;20062;-61
2021/08/21 08:46:34;;;;;;;3.13;2.67;;;;;;;23.46;54.90;100409.81;10319568;28;20049;-61
2021/08/21 08:51:36;;;;;;;2.92;2.60;;;;;;;23.92;54.06;100398.22;10319779;28;20147;-61
2021/08/21 08:56:37;;;;;;;2.70;2.50;;;;;;;24.52;51.81;100406.34;10318636;28;20096;-62
2021/08/21 09:01:42;;;;;;;2.92;2.60;;;;;;;24.80;49.71;100409.88;10312754;28;20060;-62
2021/08/21 09:06:44;;;;;;;2.95;2.75;;;;;;;24.95;49.19;100402.31;10310986;28;20192;-61
2021/08/21 09:11:54;;;;;;;3.40;2.30;;;;;;;25.31;49.32;100400.94;10317032;28;20128;-61
2021/08/21 09:17:18;;;;;;;3.08;2.85;;;;;;;25.73;46.21;100395.84;10314346;28;20046;-61
2021/08/21 09:22:19;;;;;;;4.43;2.90;;;;;;;25.80;45.19;100386.78;10317933;28;20969;-61
2021/08/21 09:27:22;;;;;;;2.50;2.30;;;;;;;26.06;46.40;100393.94;10312261;28;20066;-61
2021/08/21 09:32:28;;;;;;;3.10;2.83;;;;;;;26.50;44.94;100403.00;10315525;28;20536;-60
2021/08/21 09:37:44;;;;;;;3.60;3.28;;;;;;;26.89;43.99;100400.09;10319124;28;20145;-62
2021/08/21 09:42:46;;;;;;;2.90;2.70;;;;;;;27.42;43.81;100393.97;10318410;28;20212;-62
2021/08/21 09:47:47;;;;;;;3.40;2.95;;;;;;;27.41;42.89;100386.84;10314657;28;20140;-62
2021/08/21 09:52:50;;;;;;;2.38;2.17;;;;;;;27.89;41.83;100386.97;10311840;28;20046;-62
2021/08/21 09:58:00;;;;;;;3.15;2.85;;;;;;;28.31;41.70;100379.53;10313751;28;20070;-62
2021/08/21 10:03:05;;;;;;;3.65;2.60;;;;;;;28.81;39.42;100371.91;10316015;28;20479;-62
2021/08/21 10:08:11;;;;;;;3.42;2.40;;;;;;;28.73;39.52;100376.69;10317178;28;20060;-62
2021/08/21 10:13:24;;;;;;;2.63;2.42;;;;;;;28.49;39.78;100364.88;10309200;28;20062;-62
2021/08/21 10:18:27;;;;;;;3.42;2.45;;;;;;;29.13;38.13;100355.03;10315495;28;20146;-61
2021/08/21 10:23:29;;;;;;;3.60;1.98;;;;;;;29.97;37.66;100352.44;10315064;28;20522;-61
2021/08/21 10:28:36;;;;;;;3.35;1.83;;;;;;;33.38;31.43;100345.38;10308480;28;20057;-61
2021/08/21 10:33:57;;;;;;;3.28;1.98;;;;;;;35.81;27.27;100333.28;10313457;28;20773;-60
2021/08/21 10:39:25;;;;;;;2.60;2.40;;;;;;;35.87;27.43;100331.28;10318202;28;20423;-63
2021/08/21 10:44:44;;;;;;;2.63;2.42;;;;;;;34.03;30.03;100329.09;10324196;28;20077;-61
2021/08/21 10:49:46;;;;;;;2.00;1.90;;;;;;;33.16;31.54;100327.09;10300729;28;20201;-62
2021/08/21 10:54:47;;;;;;;2.70;1.83;;;;;;;35.58;27.28;100329.28;10314613;28;20052;-61
2021/08/21 10:59:49;;;;;;;1.95;1.85;;;;;;;39.29;21.98;100335.53;10314422;28;20165;-62
2021/08/21 11:04:51;;;;;;;2.40;2.30;;;;;;;41.28;20.15;100326.72;10312785;28;20515;-62
2021/08/21 11:10:18;;;;;;;2.00;1.77;;;;;;;42.50;18.33;100315.22;10313073;28;20796;-63
2021/08/21 11:15:22;;;;;;;1.67;1.58;;;;;;;43.05;18.29;100310.59;10312829;28;20478;-62
2021/08/21 11:20:30;;;;;;;2.63;1.30;;;;;;;43.17;17.93;100301.44;10311148;28;20284;-60
2021/08/21 11:25:43;;;;;;;1.60;1.50;;;;;;;42.98;17.43;100303.88;10313387;28;20121;-61
2021/08/21 11:31:09;;;;;;;2.47;1.50;;;;;;;43.49;17.70;100295.41;10311210;28;20053;-62
2021/08/21 11:36:10;;;;;;;1.70;1.60;;;;;;;44.09;16.17;100284.66;10302687;28;20188;-61
2021/08/21 11:41:14;;;;;;;1.70;1.60;;;;;;;44.97;15.70;100279.41;10312119;28;20096;-61
2021/08/21 11:46:24;;;;;;;2.67;2.47;;;;;;;44.97;14.73;100268.19;10312173;28;20151;-60
2021/08/21 11:51:25;;;;;;;1.80;1.70;;;;;;;44.65;16.15;100267.22;10329791;28;20056;-60
2021/08/21 11:56:27;;;;;;;3.90;1.42;;;;;;;43.66;16.52;100260.75;10314164;28;20575;-61
2021/08/21 12:01:34;;;;;;;2.10;1.75;;;;;;;40.79;19.52;100249.53;10315564;28;20120;-61
2021/08/21 12:06:36;;;;;;;2.10;1.90;;;;;;;38.74;21.88;100264.16;10311588;28;20115;-62
2021/08/21 12:11:39;;;;;;;2.15;1.95;;;;;;;37.15;23.89;100251.28;10317090;28;20073;-61
2021/08/21 12:16:41;;;;;;;1.90;1.80;;;;;;;36.47;24.18;100255.28;10317432;28;20132;-61
2021/08/21 12:21:43;;;;;;;2.42;1.70;;;;;;;36.37;24.47;100245.97;10325710;28;20165;-61
2021/08/21 12:26:46;;;;;;;2.22;1.75;;;;;;;36.12;24.68;100254.56;10319303;28;20123;-61
2021/08/21 12:31:50;;;;;;;2.45;2.35;;;;;;;35.70;25.49;100243.94;10320010;28;20142;-61
2021/08/21 12:36:56;;;;;;;2.17;1.92;;;;;;;35.40;26.27;100245.00;10314195;28;20180;-59
2021/08/21 12:41:58;;;;;;;2.40;2.20;;;;;;;35.22;26.51;100239.06;10315521;28;20844;-61
2021/08/21 12:47:04;;;;;;;2.60;1.73;;;;;;;35.29;26.35;100237.94;10319338;28;20669;-60
2021/08/21 12:52:08;;;;;;;3.28;2.10;;;;;;;34.99;26.47;100228.72;10317934;28;21587;-61
2021/08/21 12:57:20;;;;;;;2.45;2.03;;;;;;;34.27;27.11;100234.63;10322970;28;20065;-61
2021/08/21 13:02:21;;;;;;;2.00;1.80;;;;;;;33.83;28.26;100222.31;10333190;28;20048;-61
2021/08/21 13:07:43;;;;;;;2.85;2.60;;;;;;;33.79;27.78;100219.28;10322294;28;20139;-61
2021/08/21 13:12:46;;;;;;;5.03;4.72;;;;;;;33.37;29.02;100206.63;10320571;28;20050;-60
2021/08/21 13:17:48;;;;;;;2.88;2.13;;;;;;;33.01;28.24;100203.84;10313445;28;20048;-63
2021/08/21 13:22:51;;;;;;;2.35;2.15;;;;;;;33.07;28.49;100208.28;10315050;28;20054;-62
2021/08/21 13:27:52;;;;;;;1.88;1.70;;;;;;;33.16;28.91;100196.69;10310872;28;20100;-63
2021/08/21 13:32:54;;;;;;;3.58;2.20;;;;;;;32.95;28.81;100192.00;10308865;28;20054;-62
2021/08/21 13:37:56;;;;;;;3.38;2.20;;;;;;;32.41;29.59;100193.25;10320453;28;20180;-62
2021/08/21 13:42:57;;;;;;;2.55;2.17;;;;;;;32.60;30.09;100187.22;10306690;28;20136;-66
2021/08/21 13:48:00;;;;;;;;;;;;;;;32.72;28.97;100182.31;10313741;28;20280;-62
2021/08/21 13:53:02;;;;;;;2.38;2.17;;;;;;;32.72;29.51;100181.50;10328941;28;20036;-62
2021/08/21 13:58:03;;;;;;;3.42;2.38;;;;;;;32.39;29.49;100169.81;10320863;28;20078;-64
2021/08/21 14:03:05;;;;;;;4.20;2.22;;;;;;;31.83;30.71;100173.97;10316020;28;20455;-62
2021/08/21 14:08:06;;;;;;;;;;;;;;;31.67;30.73;100169.47;10319502;28;20116;-62
2021/08/21 14:13:08;;;;;;;2.65;2.45;;;;;;;31.61;30.52;100163.09;10316279;28;21510;-63
2021/08/21 14:18:09;;;;;;;2.75;2.33;;;;;;;31.50;31.10;100161.38;10329082;28;20084;-63
2021/08/21 14:23:11;;;;;;;2.83;2.17;;;;;;;31.45;31.40;100150.31;10316622;28;20121;-63
2021/08/21 14:28:12;;;;;;;2.80;2.60;;;;;;;31.12;32.22;100152.28;10315964;28;20529;-63
2021/08/21 14:33:14;;;;;;;2.05;1.90;;;;;;;30.90;32.49;100147.69;10313824;28;20145;-62
2021/08/21 14:38:16;;;;;;;2.60;2.22;;;;;;;30.71;33.31;100147.22;10312748;28;20088;-61
2021/08/21 14:43:18;;;;;;;2.78;2.38;;;;;;;30.64;32.96;100144.69;10317193;28;20058;-61
2021/08/21 14:48:19;;;;;;;2.42;1.98;;;;;;;30.55;33.50;100132.53;10315419;28;20116;-61
2021/08/21 14:53:20;;;;;;;2.60;2.25;;;;;;;29.96;34.65;100136.75;10317667;28;20123;-61
2021/08/21 14:58:22;;;;;;;3.37;2.17;;;;;;;29.77;35.01;100132.63;10316219;28;20082;-62
2021/08/21 15:03:23;;;;;;;2.83;2.10;;;;;;;29.89;35.01;100118.84;10329516;28;20376;-61
2021/08/21 15:08:25;;;;;;;2.83;2.55;;;;;;;29.90;35.40;100132.28;10313025;28;20049;-61
2021/08/21 15:13:29;;;;;;;2.70;2.50;;;;;;;29.53;36.41;100135.63;10315200;28;20132;-60
2021/08/21 15:18:32;;;;;;;2.28;2.08;;;;;;;29.56;36.52;100131.53;10312565;28;20129;-62
2021/08/21 15:23:34;;;;;;;3.10;2.33;;;;;;;29.57;36.72;100125.78;10313567;28;20058;-62
2021/08/21 15:28:35;;;;;;;3.28;2.40;;;;;;;29.60;36.97;100127.22;10309746;28;20975;-62
2021/08/21 15:33:38;;;;;;;2.83;2.60;;;;;;;29.48;37.02;100132.78;10314502;28;20073;-62
2021/08/21 15:38:39;;;;;;;2.95;2.67;;;;;;;29.58;36.74;100123.91;10332865;28;20049;-65
2021/08/21 15:43:41;;;;;;;2.78;2.55;;;;;;;29.60;37.02;100127.22;10313424;28;20442;-62
2021/08/21 15:48:43;;;;;;;2.50;2.30;;;;;;;29.44;36.91;100123.44;10308755;28;20054;-62
2021/08/21 15:53:45;;;;;;;;;;;;;;;29.33;37.19;100124.34;10305300;28;20139;-62
2021/08/21 15:58:46;;;;;;;2.70;2.50;;;;;;;29.22;37.38;100110.50;10307706;28;19984;-62
2021/08/21 16:03:47;;;;;;;3.67;3.37;;;;;;;29.14;37.82;100119.13;10309598;28;20141;-61
2021/08/21 16:08:49;;;;;;;5.00;4.60;;;;;;;29.13;38.48;100111.97;10309556;28;20196;-61
2021/08/21 16:13:50;;;;;;;4.43;4.10;;;;;;;28.91;38.43;100115.47;10305300;28;20144;-62
2021/08/21 16:18:52;;;;;;;3.77;3.47;;;;;;;28.89;38.29;100106.66;10305248;28;20657;-62
2021/08/21 16:23:53;;;;;;;4.43;3.45;;;;;;;28.63;39.13;100105.41;10310153;28;20835;-62
2021/08/21 16:28:55;;;;;;;4.70;4.30;;;;;;;28.56;39.29;100100.03;10311531;28;20065;-62
2021/08/21 16:33:56;;;;;;;6.05;5.65;;;;;;;28.40;39.65;100098.09;10310680;28;20753;-62
2021/08/21 16:38:58;;;;;;;4.30;3.50;;;;;;;28.19;39.90;100091.41;10310444;28;20128;-62
2021/08/21 16:43:59;;;;;;;5.65;5.25;;;;;;;28.23;39.89;100092.59;10308429;28;20436;-62
2021/08/21 16:49:02;;;;;;;4.10;3.80;;;;;;;28.17;39.84;100079.88;10310338;28;20165;-62
2021/08/21 16:54:03;;;;;;;3.53;3.17;;;;;;;28.14;40.51;100077.63;10308317;28;20548;-64
2021/08/21 16:59:05;;;;;;;3.47;3.00;;;;;;;28.04;40.27;100072.78;10306692;28;20140;-63
2021/08/21 17:04:06;;;;;;;4.15;3.70;;;;;;;27.97;40.54;100056.53;10319039;28;20219;-61
2021/08/21 17:09:07;;;;;;;3.65;3.35;;;;;;;27.91;40.63;100062.09;10315587;28;20074;-60
2021/08/21 17:14:09;;;;;;;3.85;2.97;;;;;;;27.73;40.77;100061.22;10332712;28;20129;-61
2021/08/21 17:19:11;;;;;;;4.68;2.90;;;;;;;27.62;41.27;100065.66;10311632;28;20128;-62
2021/08/21 17:24:13;;;;;;;3.75;2.78;;;;;;;27.48;41.63;100064.22;10311993;28;20054;-61
2021/08/21 17:29:15;;;;;;;;;;;;;;;27.37;42.02;100063.19;10314979;28;20144;-63
2021/08/21 17:34:17;;;;;;;2.95;2.67;;;;;;;27.28;42.02;100075.53;10315668;28;20058;-62
2021/08/21 17:39:20;;;;;;;4.45;4.05;;;;;;;27.12;42.45;100061.47;10329364;28;21369;-63
2021/08/21 17:44:21;;;;;;;4.93;4.43;;;;;;;27.04;42.48;100075.50;10311568;28;20133;-62
2021/08/21 17:49:23;;;;;;;3.50;3.20;;;;;;;26.95;42.68;100082.41;10317321;28;20124;-58
2021/08/21 17:54:24;;;;;;;3.92;2.78;;;;;;;26.87;42.89;100080.00;10313239;28;20078;-59
2021/08/21 17:59:26;;;;;;;4.13;3.65;;;;;;;26.84;43.19;100077.75;10315309;28;20132;-65
2021/08/21 18:04:27;;;;;;;4.20;3.30;;;;;;;26.77;43.86;100086.88;10316693;28;20069;-61
2021/08/21 18:09:29;;;;;;;4.57;4.18;;;;;;;26.70;44.01;100086.13;10313561;28;20053;-61
2021/08/21 18:14:30;;;;;;;4.88;4.35;;;;;;;26.66;44.16;100082.19;10313767;28;20066;-59
2021/08/21 18:19:33;;;;;;;4.78;3.95;;;;;;;26.56;44.29;100090.94;10318571;28;20115;-60
2021/08/21 18:24:35;;;;;;;5.68;4.38;;;;;;;26.52;44.92;100083.47;10328746;28;20124;-59
2021/08/21 18:29:36;;;;;;;4.75;3.97;;;;;;;26.45;44.97;100087.13;10315412;28;20065;-61
2021/08/21 18:34:39;;;;;;;5.45;4.68;;;;;;;26.39;45.70;100089.94;10314936;28;20546;-60
2021/08/21 18:39:40;;;;;;;5.68;5.18;;;;;;;26.30;45.83;100089.44;10314348;28;20092;-61
2021/08/21 18:44:42;;;;;;;6.25;5.30;;;;;;;26.09;46.68;100093.50;10314569;28;20077;-61
2021/08/21 18:49:44;;;;;;;5.00;4.43;;;;;;;26.01;47.29;100100.09;10307139;28;20983;-61
2021/08/21 18:54:45;;;;;;;5.72;4.65;;;;;;;25.83;47.59;100100.91;10305671;28;20188;-60
2021/08/21 18:59:46;;;;;;;5.68;5.07;;;;;;;25.71;47.63;100100.00;10314557;28;20510;-62
2021/08/21 19:04:48;;;;;;;5.45;4.95;;;;;;;25.67;48.15;100091.47;10312414;28;20053;-60
2021/08/21 19:09:49;;;;;;;5.75;5.25;;;;;;;25.67;48.67;100099.66;10309535;28;20523;-60
2021/08/21 19:14:51;;;;;;;5.05;4.55;;;;;;;25.61;48.54;100100.53;10308893;28;20077;-60
2021/08/21 19:19:53;;;;;;;6.30;5.70;;;;;;;25.58;48.54;100106.44;10307743;28;20058;-60
2021/08/21 19:24:55;;;;;;;6.45;5.70;;;;;;;25.57;48.71;100099.34;10314101;28;20862;-60
2021/08/21 19:29:56;;;;;;;7.68;6.25;;;;;;;25.38;49.84;100096.56;10308304;28;20144;-61
2021/08/21 19:34:57;;;;;;;7.30;6.57;;;;;;;25.35;49.73;100102.47;10312769;28;20419;-61
2021/08/21 19:39:59;;;;;;;7.43;6.70;;;;;;;25.05;50.57;100103.13;10312453;28;20424;-61
2021/08/21 19:45:02;;;;;;;6.72;6.07;;;;;;;24.92;51.19;100107.88;10306475;28;20294;-61
2021/08/21 19:50:04;;;;;;;7.28;6.68;;;;;;;24.85;51.20;100113.38;10313264;28;20093;-60
2021/08/21 19:55:07;;;;;;;6.50;5.80;;;;;;;24.93;51.90;100107.63;10313754;28;20144;-60
2021/08/21 20:00:09;;;;;;;5.28;4.78;;;;;;;25.00;50.77;100105.69;10309220;28;20123;-61
2021/08/21 20:05:11;;;;;;;7.32;5.85;;;;;;;24.81;51.89;100107.53;10315403;28;20049;-61
2021/08/21 20:10:13;;;;;;;6.63;6.03;;;;;;;24.72;52.18;100091.69;10311965;28;21417;-60
2021/08/21 20:15:17;;;;;;;6.05;5.43;;;;;;;24.82;52.13;100089.31;10309934;28;20482;-60
2021/08/21 20:20:20;;;;;;;6.90;6.30;;;;;;;24.82;52.56;100097.50;10313530;28;20668;-61
2021/08/21 20:25:22;;;;;;;6.53;5.93;;;;;;;24.73;53.09;100082.50;10310902;28;20104;-61
2021/08/21 20:30:24;;;;;;;6.63;5.97;;;;;;;24.65;52.79;100084.41;10311043;28;20062;-61
2021/08/21 20:35:26;;;;;;;6.78;5.90;;;;;;;24.54;53.74;100095.97;10312806;28;20173;-60
2021/08/21 20:40:27;;;;;;;6.10;5.53;;;;;;;24.51;54.00;100091.78;10315211;28;20078;-62
2021/08/21 20:45:29;;;;;;;7.82;7.03;;;;;;;24.44;53.88;100079.28;10312724;28;20066;-61
2021/08/21 20:50:30;;;;;;;7.57;6.90;;;;;;;24.35;54.42;100065.97;10327657;28;20050;-60
2021/08/21 20:55:31;;;;;;;8.70;7.82;;;;;;;24.29;55.25;100076.84;10336282;28;20132;-60
2021/08/21 21:00:33;;;;;;;10.45;8.32;;;;;;;24.22;55.66;100076.91;10331351;28;20133;-60
2021/08/21 21:05:35;;;;;;;9.57;8.57;;;;;;;24.15;55.69;100062.50;10332886;28;20080;-59
2021/08/21 21:10:36;;;;;;;9.35;8.10;;;;;;;24.16;55.78;100064.19;10332286;28;20727;-60
2021/08/21 21:15:38;;;;;;;7.90;7.10;;;;;;;24.16;55.96;100066.91;10339899;28;25032;-60
2021/08/21 21:20:40;;;;;;;7.63;6.93;;;;;;;24.17;55.95;100065.88;10339315;28;20048;-60
2021/08/21 21:25:42;;;;;;;7.43;6.55;;;;;;;24.16;56.33;100066.91;10332469;28;20096;-60
2021/08/21 21:30:43;;;;;;;5.75;5.20;;;;;;;24.12;56.29;100071.94;10339578;28;20069;-60
2021/08/21 21:35:45;;;;;;;7.32;6.72;;;;;;;24.09;56.32;100082.41;10334029;28;20124;-60
2021/08/21 21:40:47;;;;;;;8.90;7.90;;;;;;;24.07;56.63;100095.41;10352261;28;20058;-60
2021/08/21 21:45:49;;;;;;;8.27;7.57;;;;;;;24.02;57.15;100093.34;10329840;28;20062;-61
2021/08/21 21:50:50;;;;;;;9.63;8.65;;;;;;;23.96;57.69;100089.59;10332831;28;20050;-60
2021/08/21 21:55:52;;;;;;;23.88;9.77;;;;;;;23.92;57.88;100082.91;10328633;28;20078;-60
2021/08/21 22:00:59;;;;;;;8.23;7.43;;;;;;;23.87;58.73;100085.44;10334803;28;20050;-60
2021/08/21 22:06:03;;;;;;;6.70;6.07;;;;;;;23.81;58.50;100076.22;10331914;28;20044;-60
2021/08/21 22:11:04;;;;;;;8.00;7.30;;;;;;;23.74;59.01;100071.88;10329511;28;20132;-59
2021/08/21 22:16:07;;;;;;;8.45;7.15;;;;;;;23.71;59.51;100080.47;10327415;28;20113;-60
2021/08/21 22:21:08;;;;;;;10.53;8.73;;;;;;;23.70;59.45;100076.88;10331865;28;20492;-59
2021/08/21 22:26:10;;;;;;;9.32;8.02;;;;;;;23.69;60.07;100093.41;10332595;28;20054;-60
2021/08/21 22:31:12;;;;;;;11.15;7.88;;;;;;;23.67;60.17;100082.75;10326714;28;20050;-60
2021/08/21 22:36:13;;;;;;;10.57;9.45;;;;;;;23.62;61.10;100094.25;10345162;28;20113;-60
2021/08/21 22:41:15;;;;;;;8.57;7.88;;;;;;;23.59;61.11;100105.56;10338488;28;20081;-60
2021/08/21 22:46:16;;;;;;;9.35;8.55;;;;;;;23.51;62.04;100100.38;10338166;28;20132;-60
2021/08/21 22:51:18;;;;;;;9.60;8.43;;;;;;;23.44;63.21;100096.81;10341578;28;20062;-60
2021/08/21 22:56:19;;;;;;;9.50;8.60;;;;;;;23.46;63.22;100108.31;10337276;28;20525;-59
2021/08/21 23:01:21;;;;;;;8.18;7.47;;;;;;;23.41;62.93;100110.84;10321864;28;20455;-60
2021/08/21 23:06:22;;;;;;;8.68;7.35;;;;;;;23.36;63.16;100105.19;10338949;28;20056;-60
2021/08/21 23:11:24;;;;;;;9.35;8.38;;;;;;;23.39;63.54;100088.47;10329131;28;20073;-60